Sunbeam, Idaho
Current Conditions -  °F | °C
As of 8:55 AM on Friday 24 Oct 2014 (Local Time) from KLLJ Reporting Station
Overcast Overcast  
Wind Chill:   Ceiling: 5500
Heat Index:   Visibility: 10mi
Dew Point:   Wind: 5mph
Humidity: 86%   Direction: 320°NW
Pressure: 30.11"   Gusts: NA
Location:  44.3379°N, 114.824°W
Report Text: KLLJ 241455Z AUTO 32004KT 10SM BKN055 BKN080 OVC090 07/05 A3011 RMK AO2 RAE36 SLP172 P0000 60000 T00720050 52012
Loading
Personal Weather Stations






























Interactive Weather Map
Tropical Storm Tracking
New forecast layout! Learn more

10-Day Weather Forecast

Advertisements
Track Severe Weather on mobile